createdAt,value
2018-08-20T00:00:08.872Z,5.33
2018-08-20T00:02:37.214Z,5.10
2018-08-20T00:05:04.979Z,5.30
2018-08-20T00:07:32.053Z,5.20
2018-08-20T00:09:59.107Z,4.85
2018-08-20T00:12:26.183Z,5.05
2018-08-20T00:14:53.232Z,5.25
2018-08-20T00:17:20.422Z,5.25
2018-08-20T00:19:47.493Z,5.45
2018-08-20T00:22:14.523Z,5.20
2018-08-20T00:24:41.583Z,5.42
2018-08-20T00:27:08.633Z,4.85
2018-08-20T00:29:36.239Z,5.40
2018-08-20T00:32:03.280Z,5.17
2018-08-20T00:34:30.332Z,5.15
2018-08-20T00:36:57.364Z,5.05
2018-08-20T00:39:24.413Z,5.03
2018-08-20T00:41:51.508Z,5.15
2018-08-20T00:44:18.542Z,5.37
2018-08-20T00:46:46.231Z,5.45
2018-08-20T00:49:14.433Z,5.20
2018-08-20T00:51:41.465Z,5.30
2018-08-20T00:54:08.509Z,5.58
2018-08-20T00:56:35.643Z,5.28
2018-08-20T00:59:03.162Z,5.28
2018-08-20T01:01:30.200Z,5.85
2018-08-20T01:03:57.250Z,5.42
2018-08-20T01:06:24.438Z,4.67
2018-08-20T01:08:51.715Z,5.35
2018-08-20T01:11:18.755Z,5.60
2018-08-20T01:13:45.798Z,5.22
2018-08-20T01:16:12.916Z,5.17
2018-08-20T01:18:39.951Z,4.97
2018-08-20T01:21:06.980Z,5.65
2018-08-20T01:23:34.016Z,4.85
2018-08-20T01:26:01.058Z,5.30
2018-08-20T01:28:28.271Z,5.35
2018-08-20T01:30:55.336Z,5.50
2018-08-20T01:33:22.850Z,5.50
2018-08-20T01:35:49.904Z,5.47
2018-08-20T01:38:17.018Z,5.80
2018-08-20T01:40:44.213Z,5.10
2018-08-20T01:43:11.294Z,5.72
2018-08-20T01:45:38.368Z,5.80
2018-08-20T01:48:05.436Z,5.90
2018-08-20T01:50:32.471Z,6.67
2018-08-20T01:52:59.565Z,5.67
2018-08-20T01:55:26.597Z,5.22
2018-08-20T01:57:53.649Z,5.33
2018-08-20T02:00:20.683Z,5.37
2018-08-20T02:02:54.747Z,5.45
2018-08-20T02:05:22.080Z,5.85
2018-08-20T02:07:49.260Z,5.20
2018-08-20T02:10:16.308Z,5.30
2018-08-20T02:12:43.523Z,5.55
2018-08-20T02:15:10.679Z,5.08
2018-08-20T02:17:37.720Z,5.05
2018-08-20T02:20:05.355Z,4.92
2018-08-20T02:22:32.495Z,5.53
2018-08-20T02:24:59.556Z,5.53
2018-08-20T02:27:26.592Z,5.30
2018-08-20T02:29:53.632Z,4.87
2018-08-20T02:32:20.680Z,4.62
2018-08-20T02:34:47.892Z,4.97
2018-08-20T02:37:14.949Z,5.28
2018-08-20T02:39:41.982Z,5.22
2018-08-20T02:42:09.100Z,4.95
2018-08-20T02:44:36.184Z,5.30
2018-08-20T02:47:03.259Z,5.08
2018-08-20T02:49:30.299Z,4.50
2018-08-20T02:51:57.327Z,5.42
2018-08-20T02:54:24.406Z,5.75
2018-08-20T02:56:51.582Z,5.20
2018-08-20T02:59:18.644Z,5.22
2018-08-20T03:01:45.697Z,4.90
2018-08-20T03:04:12.733Z,4.97
2018-08-20T03:06:39.857Z,5.37
2018-08-20T03:09:07.784Z,5.47
2018-08-20T03:11:34.856Z,5.25
2018-08-20T03:14:01.928Z,5.22
2018-08-20T03:16:29.149Z,5.78
2018-08-20T03:18:56.058Z,5.62
2018-08-20T03:21:23.096Z,6.95
2018-08-20T03:23:50.136Z,5.67
2018-08-20T03:26:17.181Z,5.12
2018-08-20T03:28:44.217Z,5.70
2018-08-20T03:31:11.263Z,5.75
2018-08-20T03:33:38.651Z,5.75
2018-08-20T03:36:05.745Z,5.28
2018-08-20T03:38:32.759Z,6.42
2018-08-20T03:40:59.807Z,5.92
2018-08-20T03:43:26.865Z,5.78
2018-08-20T03:45:53.904Z,5.30
2018-08-20T03:48:20.938Z,5.22
2018-08-20T03:50:48.140Z,5.53
2018-08-20T03:53:15.193Z,5.47
2018-08-20T03:55:42.248Z,5.55
2018-08-20T03:58:09.297Z,6.22
2018-08-20T04:00:36.524Z,6.17
2018-08-20T04:03:03.674Z,5.90
2018-08-20T04:05:30.715Z,5.92
2018-08-20T04:07:57.782Z,5.95
2018-08-20T04:10:24.821Z,6.15
2018-08-20T04:12:52.178Z,5.90
2018-08-20T04:15:19.225Z,6.20
2018-08-20T04:17:46.272Z,6.20
2018-08-20T04:20:13.339Z,5.90
2018-08-20T04:22:40.411Z,5.85
2018-08-20T04:25:07.464Z,6.42
2018-08-20T04:27:34.532Z,6.00
2018-08-20T04:30:01.611Z,6.10
2018-08-20T04:32:28.660Z,5.95
2018-08-20T04:34:55.727Z,6.25
2018-08-20T04:37:22.884Z,6.00
2018-08-20T04:39:49.960Z,6.10
2018-08-20T04:42:17.325Z,5.85
2018-08-20T04:44:44.281Z,6.20
2018-08-20T04:47:11.318Z,5.62
2018-08-20T04:49:38.484Z,5.55
2018-08-20T04:52:05.538Z,6.30
2018-08-20T04:54:32.593Z,6.10
2018-08-20T04:56:59.872Z,6.70
2018-08-20T04:59:27.000Z,5.72
2018-08-20T05:01:54.036Z,6.45
2018-08-20T05:04:21.077Z,6.33
2018-08-20T05:06:48.132Z,7.33
2018-08-20T05:09:15.420Z,6.90
2018-08-20T05:11:42.477Z,7.70
2018-08-20T05:14:09.524Z,7.83
2018-08-20T05:16:36.568Z,8.15
2018-08-20T05:19:03.677Z,8.40
2018-08-20T05:21:30.676Z,8.20
2018-08-20T05:23:57.727Z,8.40
2018-08-20T05:26:24.780Z,8.18
2018-08-20T05:28:51.829Z,8.35
2018-08-20T05:31:18.884Z,8.53
2018-08-20T05:33:45.938Z,8.10
2018-08-20T05:36:13.009Z,7.55
2018-08-20T05:38:40.064Z,7.08
2018-08-20T05:41:07.126Z,7.67
2018-08-20T05:43:34.193Z,8.53
2018-08-20T05:46:01.288Z,7.37
2018-08-20T05:48:28.321Z,7.10
2018-08-20T05:50:55.368Z,7.75
2018-08-20T05:53:22.403Z,7.30
2018-08-20T05:55:49.492Z,7.12
2018-08-20T05:58:16.535Z,7.30
2018-08-20T06:00:43.624Z,8.58
2018-08-20T06:03:10.656Z,7.25
2018-08-20T06:05:37.709Z,7.95
2018-08-20T06:08:04.775Z,7.47
2018-08-20T06:10:31.817Z,8.05
2018-08-20T06:12:58.858Z,7.85
2018-08-20T06:15:25.920Z,7.90
2018-08-20T06:17:52.973Z,8.35
2018-08-20T06:20:20.008Z,8.48
2018-08-20T06:22:47.096Z,8.33
2018-08-20T06:25:14.487Z,9.18
2018-08-20T06:27:41.989Z,8.73
2018-08-20T06:30:10.204Z,8.93
2018-08-20T06:32:37.761Z,9.23
2018-08-20T06:35:05.564Z,8.85
2018-08-20T06:37:32.659Z,8.95
2018-08-20T06:39:59.716Z,9.35
2018-08-20T06:42:26.820Z,9.30
2018-08-20T06:44:54.064Z,9.55
2018-08-20T06:47:21.116Z,8.60
2018-08-20T06:49:48.164Z,8.65
2018-08-20T06:52:15.204Z,9.53
2018-08-20T06:54:42.252Z,8.78
2018-08-20T06:57:09.313Z,8.33
2018-08-20T06:59:36.349Z,8.58
2018-08-20T07:02:03.428Z,8.18
2018-08-20T07:04:30.469Z,8.58
2018-08-20T07:06:57.540Z,8.20
2018-08-20T07:09:24.586Z,8.10
2018-08-20T07:11:51.685Z,7.65
2018-08-20T07:14:18.736Z,6.97
2018-08-20T07:16:45.767Z,7.50
2018-08-20T07:19:12.809Z,7.65
2018-08-20T07:21:39.830Z,6.90
2018-08-20T07:24:06.883Z,7.10
2018-08-20T07:26:33.916Z,6.53
2018-08-20T07:29:00.966Z,7.00
2018-08-20T07:31:28.296Z,7.10
2018-08-20T07:33:55.345Z,6.95
2018-08-20T07:36:22.376Z,6.80
2018-08-20T07:38:49.404Z,6.50
2018-08-20T07:41:16.471Z,5.97
2018-08-20T07:43:43.508Z,7.00
2018-08-20T07:46:10.540Z,6.35
2018-08-20T07:48:37.606Z,6.25
2018-08-20T07:51:04.658Z,6.45
2018-08-20T07:53:31.702Z,6.75
2018-08-20T07:55:58.756Z,6.15
2018-08-20T07:58:25.810Z,6.28
2018-08-20T08:00:52.834Z,6.22
2018-08-20T08:03:24.149Z,5.78
2018-08-20T08:05:51.176Z,5.85
2018-08-20T08:08:18.215Z,6.62
2018-08-20T08:10:45.252Z,5.90
2018-08-20T08:13:12.283Z,6.30
2018-08-20T08:15:39.316Z,5.85
2018-08-20T08:18:06.366Z,6.42
2018-08-20T08:20:33.401Z,5.50
2018-08-20T08:23:00.431Z,6.05
2018-08-20T08:25:27.488Z,6.33
2018-08-20T08:27:54.595Z,5.17
2018-08-20T08:30:21.624Z,5.22
2018-08-20T08:32:48.676Z,6.20
2018-08-20T08:35:15.737Z,5.37
2018-08-20T08:37:42.784Z,5.70
2018-08-20T08:40:10.660Z,6.03
2018-08-20T08:42:37.687Z,5.92
2018-08-20T08:45:05.432Z,5.50
2018-08-20T08:47:32.504Z,6.03
2018-08-20T08:49:59.615Z,5.47
2018-08-20T08:52:26.685Z,5.90
2018-08-20T08:54:53.720Z,5.08
2018-08-20T08:57:20.779Z,5.65
2018-08-20T08:59:47.840Z,5.97
2018-08-20T09:02:14.877Z,6.03
2018-08-20T09:04:41.909Z,5.90
2018-08-20T09:07:08.948Z,6.10
2018-08-20T09:09:35.988Z,5.00
2018-08-20T09:12:03.035Z,5.87
2018-08-20T09:14:30.393Z,5.40
2018-08-20T09:16:57.518Z,5.85
2018-08-20T09:19:24.733Z,5.65
2018-08-20T09:21:51.828Z,5.62
2018-08-20T09:24:18.917Z,5.47
2018-08-20T09:26:45.958Z,5.53
2018-08-20T09:29:12.988Z,5.30
2018-08-20T09:31:40.012Z,5.58
2018-08-20T09:34:07.052Z,5.78
2018-08-20T09:36:34.108Z,5.37
2018-08-20T09:39:01.197Z,5.12
2018-08-20T09:41:28.329Z,5.55
2018-08-20T09:43:55.440Z,5.37
2018-08-20T09:46:22.690Z,4.83
2018-08-20T09:48:49.759Z,5.40
2018-08-20T09:51:16.824Z,5.53
2018-08-20T09:53:43.857Z,5.05
2018-08-20T09:56:10.879Z,6.08
2018-08-20T09:58:37.908Z,5.53
2018-08-20T10:01:04.960Z,5.17
2018-08-20T10:03:31.987Z,5.90
2018-08-20T10:05:59.068Z,5.70
2018-08-20T10:08:26.132Z,5.47
2018-08-20T10:10:53.168Z,5.90
2018-08-20T10:13:20.337Z,5.58
2018-08-20T10:15:47.395Z,6.10
2018-08-20T10:18:14.428Z,5.58
2018-08-20T10:20:41.472Z,6.42
2018-08-20T10:23:08.615Z,5.90
2018-08-20T10:25:35.733Z,6.08
2018-08-20T10:28:02.775Z,5.35
2018-08-20T10:30:29.828Z,5.10
2018-08-20T10:32:56.872Z,5.67
2018-08-20T10:35:24.105Z,5.55
2018-08-20T10:37:51.301Z,5.62
2018-08-20T10:40:18.219Z,5.47
2018-08-20T10:42:45.336Z,5.47
2018-08-20T10:45:15.094Z,5.22
2018-08-20T10:47:42.685Z,5.08
2018-08-20T10:50:13.637Z,5.45
2018-08-20T10:52:41.200Z,5.47
2018-08-20T10:55:08.167Z,5.83
2018-08-20T10:57:35.209Z,5.25
2018-08-20T11:00:02.244Z,5.35
2018-08-20T11:02:29.280Z,4.67
2018-08-20T11:04:56.407Z,4.50
2018-08-20T11:07:24.044Z,4.70
2018-08-20T11:09:51.080Z,5.25
2018-08-20T11:12:18.107Z,4.67
2018-08-20T11:14:45.221Z,5.15
2018-08-20T11:17:12.341Z,4.75
2018-08-20T11:19:39.376Z,5.58
2018-08-20T11:22:06.409Z,4.92
2018-08-20T11:24:33.445Z,4.70
2018-08-20T11:27:00.599Z,4.47
2018-08-20T11:29:27.682Z,4.10
2018-08-20T11:31:54.800Z,4.90
2018-08-20T11:34:21.816Z,4.42
2018-08-20T11:36:48.856Z,4.37
2018-08-20T11:39:15.902Z,4.33
2018-08-20T11:41:42.940Z,4.47
2018-08-20T11:44:10.136Z,4.83
2018-08-20T11:46:37.231Z,4.53
2018-08-20T11:49:04.247Z,4.80
2018-08-20T11:51:31.279Z,5.20
2018-08-20T11:53:58.325Z,4.58
2018-08-20T11:56:25.387Z,4.42
2018-08-20T11:58:52.432Z,4.78
2018-08-20T12:01:19.543Z,4.65
2018-08-20T12:03:50.924Z,4.08
2018-08-20T12:06:17.944Z,4.17
2018-08-20T12:08:44.983Z,4.85
2018-08-20T12:11:11.996Z,4.67
2018-08-20T12:13:39.025Z,4.80
2018-08-20T12:16:06.060Z,4.55
2018-08-20T12:18:33.113Z,4.62
2018-08-20T12:21:00.144Z,4.40
2018-08-20T12:23:27.174Z,4.33
2018-08-20T12:25:54.287Z,4.70
2018-08-20T12:28:21.403Z,4.50
2018-08-20T12:30:48.374Z,4.67
2018-08-20T12:33:15.392Z,5.10
2018-08-20T12:35:42.469Z,4.70
2018-08-20T12:38:09.537Z,4.90
2018-08-20T12:40:36.563Z,4.50
2018-08-20T12:43:03.608Z,4.67
2018-08-20T12:45:30.648Z,4.40
2018-08-20T12:47:57.701Z,5.20
2018-08-20T12:50:24.732Z,4.67
2018-08-20T12:52:51.808Z,4.70
2018-08-20T12:55:18.820Z,4.80
2018-08-20T12:57:45.932Z,5.08
2018-08-20T13:00:12.960Z,5.20
2018-08-20T13:02:40.057Z,4.80
2018-08-20T13:05:07.218Z,5.20
2018-08-20T13:07:34.228Z,5.42
2018-08-20T13:10:01.307Z,4.83
2018-08-20T13:12:28.368Z,5.08
2018-08-20T13:14:55.427Z,5.58
2018-08-20T13:17:22.440Z,5.22
2018-08-20T13:19:49.480Z,5.00
2018-08-20T13:22:16.576Z,4.95
2018-08-20T13:24:43.612Z,5.53
2018-08-20T13:27:10.632Z,5.03
2018-08-20T13:29:37.664Z,5.45
2018-08-20T13:32:04.708Z,5.35
2018-08-20T13:34:31.747Z,5.20
2018-08-20T13:36:59.057Z,5.10
2018-08-20T13:39:26.095Z,5.22
2018-08-20T13:41:53.260Z,5.08
2018-08-20T13:44:20.331Z,4.97
2018-08-20T13:46:47.379Z,5.08
2018-08-20T13:49:14.488Z,5.53
2018-08-20T13:51:41.511Z,5.12
2018-08-20T13:54:08.595Z,5.90
2018-08-20T13:56:35.623Z,5.20
2018-08-20T13:59:02.664Z,5.03
2018-08-20T14:01:29.707Z,5.03
2018-08-20T14:03:57.347Z,5.15
2018-08-20T14:06:24.403Z,5.35
2018-08-20T14:08:51.432Z,5.33
2018-08-20T14:11:18.468Z,5.40
2018-08-20T14:13:45.500Z,5.40
2018-08-20T14:16:12.728Z,5.22
2018-08-20T14:18:39.824Z,5.17
2018-08-20T14:21:07.952Z,4.90
2018-08-20T14:23:35.496Z,5.55
2018-08-20T14:26:02.684Z,5.40
2018-08-20T14:28:30.368Z,5.35
2018-08-20T14:30:57.453Z,4.95
2018-08-20T14:33:24.583Z,6.05
2018-08-20T14:35:51.672Z,5.00
2018-08-20T14:38:18.708Z,5.28
2018-08-20T14:40:45.744Z,5.50
2018-08-20T14:43:12.765Z,5.25
2018-08-20T14:45:45.430Z,5.47
2018-08-20T14:48:12.485Z,5.58
2018-08-20T14:50:39.516Z,5.70
2018-08-20T14:53:06.540Z,6.05
2018-08-20T14:55:33.588Z,6.15
2018-08-20T14:58:00.667Z,7.37
2018-08-20T15:00:27.827Z,7.35
2018-08-20T15:02:54.856Z,6.95
2018-08-20T15:05:21.904Z,7.28
2018-08-20T15:07:49.947Z,7.03
2018-08-20T15:10:17.036Z,8.43
2018-08-20T15:12:44.073Z,8.00
2018-08-20T15:15:11.242Z,7.75
2018-08-20T15:17:38.171Z,7.22
2018-08-20T15:20:05.418Z,7.47
2018-08-20T15:22:32.875Z,7.40
2018-08-20T15:24:59.960Z,7.30
2018-08-20T15:27:27.070Z,7.60
2018-08-20T15:29:54.545Z,6.65
2018-08-20T15:32:21.678Z,7.00
2018-08-20T15:34:48.704Z,8.25
2018-08-20T15:37:15.740Z,8.08
2018-08-20T15:39:42.769Z,6.25
2018-08-20T15:42:09.812Z,6.33
2018-08-20T15:44:36.837Z,7.22
2018-08-20T15:47:03.855Z,7.50
2018-08-20T15:49:30.956Z,6.28
2018-08-20T15:51:58.082Z,7.35
2018-08-20T15:54:25.121Z,5.60
2018-08-20T15:56:52.148Z,7.58
2018-08-20T15:59:19.167Z,6.40
2018-08-20T16:01:46.243Z,6.22
2018-08-20T16:04:13.772Z,6.97
2018-08-20T16:06:40.865Z,6.90
2018-08-20T16:09:08.188Z,7.05
2018-08-20T16:11:35.290Z,6.55
2018-08-20T16:14:02.366Z,5.72
2018-08-20T16:16:29.498Z,6.50
2018-08-20T16:18:56.609Z,5.95
2018-08-20T16:21:23.771Z,5.37
2018-08-20T16:23:50.803Z,6.10
2018-08-20T16:26:17.920Z,6.60
2018-08-20T16:28:44.939Z,5.28
2018-08-20T16:31:11.977Z,5.65
2018-08-20T16:33:39.000Z,5.40
2018-08-20T16:36:06.027Z,5.33
2018-08-20T16:38:33.123Z,5.33
2018-08-20T16:41:00.277Z,5.70
2018-08-20T16:43:27.308Z,5.42
2018-08-20T16:45:54.321Z,5.97
2018-08-20T16:48:21.348Z,6.20
2018-08-20T16:50:48.376Z,5.78
2018-08-20T16:53:15.408Z,4.90
2018-08-20T16:55:42.432Z,5.15
2018-08-20T16:58:09.482Z,5.45
2018-08-20T17:00:36.501Z,5.15
2018-08-20T17:03:03.530Z,5.35
2018-08-20T17:05:37.882Z,5.45
2018-08-20T17:08:04.887Z,4.90
2018-08-20T17:10:31.999Z,5.17
2018-08-20T17:12:59.007Z,5.22
2018-08-20T17:15:26.064Z,4.78
2018-08-20T17:17:53.101Z,4.78
2018-08-20T17:20:20.188Z,5.00
2018-08-20T17:22:47.264Z,4.92
2018-08-20T17:25:14.288Z,4.60
2018-08-20T17:27:43.860Z,5.53
2018-08-20T17:30:10.888Z,5.42
2018-08-20T17:32:37.979Z,5.03
2018-08-20T17:35:06.572Z,5.70
2018-08-20T17:37:33.600Z,4.30
2018-08-20T17:40:02.465Z,4.28
2018-08-20T17:42:30.584Z,3.60
2018-08-20T17:44:58.243Z,3.75
2018-08-20T17:47:26.346Z,4.62
2018-08-20T17:49:54.405Z,3.92
2018-08-20T17:52:22.127Z,4.10
2018-08-20T17:54:49.256Z,4.30
2018-08-20T17:57:16.424Z,3.85
2018-08-20T17:59:43.468Z,3.62
2018-08-20T18:02:14.585Z,3.40
2018-08-20T18:04:41.677Z,4.10
2018-08-20T18:07:08.704Z,3.30
2018-08-20T18:09:35.740Z,3.35
2018-08-20T18:12:03.708Z,3.67
2018-08-20T18:14:30.743Z,3.27
2018-08-20T18:16:57.889Z,5.70
2018-08-20T18:19:24.912Z,6.70
2018-08-20T18:21:51.950Z,5.95
2018-08-20T18:24:20.111Z,5.85
2018-08-20T18:26:48.906Z,5.17
2018-08-20T18:29:16.036Z,4.72
2018-08-20T18:31:43.072Z,5.28
2018-08-20T18:34:10.108Z,4.78
2018-08-20T18:36:37.155Z,4.92
2018-08-20T18:39:07.984Z,4.50
2018-08-20T18:42:13.736Z,4.90
2018-08-20T18:44:40.775Z,5.42
2018-08-20T18:47:08.416Z,4.67
2018-08-20T18:49:39.023Z,4.90
2018-08-20T18:52:11.532Z,4.60
2018-08-20T18:54:42.372Z,4.58
2018-08-20T18:57:09.481Z,4.83
2018-08-20T18:59:38.731Z,3.80
2018-08-20T19:02:06.560Z,4.47
2018-08-20T19:04:39.244Z,3.80
2018-08-20T19:07:10.480Z,4.10
2018-08-20T19:09:38.384Z,3.98
2018-08-20T19:12:05.458Z,4.17
2018-08-20T19:14:32.639Z,4.03
2018-08-20T19:16:59.684Z,4.28
2018-08-20T19:19:28.149Z,3.65
2018-08-20T19:21:55.179Z,3.80
2018-08-20T19:24:22.360Z,4.33
2018-08-20T19:26:49.585Z,3.27
2018-08-20T19:29:22.320Z,3.33
2018-08-20T19:31:49.356Z,3.90
2018-08-20T19:34:16.408Z,3.58
2018-08-20T19:36:43.548Z,3.50
2018-08-20T19:39:10.591Z,4.60
2018-08-20T19:41:37.624Z,4.40
2018-08-20T19:44:04.661Z,4.35
2018-08-20T19:46:38.459Z,3.95
2018-08-20T19:49:08.692Z,4.03
2018-08-20T19:51:36.772Z,3.33
2018-08-20T19:54:03.828Z,3.42
2018-08-20T19:56:30.895Z,3.92
2018-08-20T19:58:57.945Z,3.70
2018-08-20T20:01:25.038Z,3.70
2018-08-20T20:03:52.196Z,3.17
2018-08-20T20:06:19.280Z,3.75
2018-08-20T20:08:46.348Z,3.40
2018-08-20T20:11:21.675Z,3.65
2018-08-20T20:13:51.252Z,4.10
2018-08-20T20:16:18.283Z,3.55
2018-08-20T20:18:45.435Z,2.62
2018-08-20T20:21:12.521Z,3.40
2018-08-20T20:23:39.658Z,3.02
2018-08-20T20:26:06.628Z,3.25
2018-08-20T20:28:33.648Z,3.17
2018-08-20T20:31:00.704Z,3.35
2018-08-20T20:33:28.256Z,3.30
2018-08-20T20:35:55.332Z,3.30
2018-08-20T20:38:22.426Z,3.17
2018-08-20T20:40:49.407Z,3.35
2018-08-20T20:43:16.928Z,3.62
2018-08-20T20:45:44.134Z,3.87
2018-08-20T20:48:11.161Z,3.35
2018-08-20T20:50:38.193Z,3.67
2018-08-20T20:53:05.300Z,3.50
2018-08-20T20:55:32.347Z,3.30
2018-08-20T20:57:59.383Z,3.50
2018-08-20T21:00:26.611Z,3.35
2018-08-20T21:02:57.981Z,3.70
2018-08-20T21:05:25.020Z,2.95
2018-08-20T21:07:52.072Z,3.72
2018-08-20T21:10:19.204Z,4.03
2018-08-20T21:12:46.238Z,4.05
2018-08-20T21:15:13.271Z,4.12
2018-08-20T21:17:40.308Z,3.60
2018-08-20T21:20:07.734Z,3.85
2018-08-20T21:22:35.220Z,3.62
2018-08-20T21:25:02.496Z,4.15
2018-08-20T21:27:29.523Z,4.20
2018-08-20T21:30:01.161Z,3.70
2018-08-20T21:32:28.375Z,3.52
2018-08-20T21:34:55.508Z,4.03
2018-08-20T21:37:22.551Z,4.37
2018-08-20T21:39:49.648Z,3.70
2018-08-20T21:42:16.779Z,3.85
2018-08-20T21:44:43.965Z,3.55
2018-08-20T21:47:27.267Z,3.27
2018-08-20T21:49:54.472Z,4.47
2018-08-20T21:52:21.508Z,3.95
2018-08-20T21:54:48.556Z,4.05
2018-08-20T21:57:15.590Z,3.67
2018-08-20T21:59:48.349Z,3.98
2018-08-20T22:02:15.396Z,3.87
2018-08-20T22:04:42.580Z,4.22
2018-08-20T22:07:09.730Z,3.80
2018-08-20T22:09:36.803Z,4.05
2018-08-20T22:12:03.863Z,4.60
2018-08-20T22:14:30.894Z,4.22
2018-08-20T22:16:57.929Z,4.33
2018-08-20T22:19:24.980Z,4.20
2018-08-20T22:21:52.067Z,4.05
2018-08-20T22:24:19.089Z,5.45
2018-08-20T22:27:04.814Z,4.90
2018-08-20T22:29:37.413Z,5.40
2018-08-20T22:32:05.213Z,4.90
2018-08-20T22:34:32.249Z,4.92
2018-08-20T22:37:03.860Z,4.97
2018-08-20T22:39:31.030Z,4.17
2018-08-20T22:41:58.131Z,4.53
2018-08-20T22:44:25.175Z,4.70
2018-08-20T22:46:52.271Z,4.33
2018-08-20T22:49:19.540Z,4.72
2018-08-20T22:51:46.583Z,4.92
2018-08-20T22:54:14.902Z,4.87
2018-08-20T22:56:41.944Z,4.75
2018-08-20T22:59:09.803Z,4.47
2018-08-20T23:01:36.844Z,4.12
2018-08-20T23:04:04.465Z,5.37
2018-08-20T23:06:31.498Z,4.47
2018-08-20T23:08:58.650Z,4.08
2018-08-20T23:11:37.063Z,4.42
2018-08-20T23:14:04.465Z,5.05
2018-08-20T23:16:31.497Z,4.80
2018-08-20T23:18:58.525Z,4.50
2018-08-20T23:21:28.732Z,4.72
2018-08-20T23:23:55.792Z,4.95
2018-08-20T23:26:22.812Z,5.50
2018-08-20T23:28:49.847Z,4.95
2018-08-20T23:31:16.935Z,4.65
2018-08-20T23:33:43.976Z,5.08
2018-08-20T23:36:11.008Z,4.40
2018-08-20T23:38:38.056Z,4.97
2018-08-20T23:41:05.096Z,5.10
2018-08-20T23:43:32.209Z,5.00
2018-08-20T23:45:59.396Z,5.05
2018-08-20T23:48:26.479Z,4.28
2018-08-20T23:50:58.888Z,4.70
2018-08-20T23:55:50.172Z,4.23
2018-08-20T23:58:17.476Z,4.70
